createdAt,value
2017-10-01T00:02:10.035Z,12.12
2017-10-01T00:04:37.552Z,12.20
2017-10-01T00:07:05.111Z,12.27
2017-10-01T00:09:33.089Z,12.22
2017-10-01T00:12:00.639Z,12.26
2017-10-01T00:14:28.198Z,12.26
2017-10-01T00:16:55.948Z,12.23
2017-10-01T00:19:23.494Z,12.21
2017-10-01T00:21:51.020Z,12.22
2017-10-01T00:24:18.741Z,12.18
2017-10-01T00:26:46.252Z,12.22
2017-10-01T00:29:13.774Z,12.17
2017-10-01T00:31:41.334Z,12.11
2017-10-01T00:34:08.859Z,12.17
2017-10-01T00:36:36.384Z,12.12
2017-10-01T00:39:04.097Z,12.13
2017-10-01T00:41:31.607Z,12.17
2017-10-01T00:43:59.134Z,12.11
2017-10-01T00:46:27.080Z,12.13
2017-10-01T00:48:54.692Z,12.19
2017-10-01T00:51:22.207Z,12.22
2017-10-01T00:53:49.810Z,12.22
2017-10-01T00:56:17.335Z,12.24
2017-10-01T00:58:44.866Z,12.33
2017-10-01T01:01:12.742Z,12.27
2017-10-01T01:03:40.250Z,12.25
2017-10-01T01:06:07.860Z,12.17
2017-10-01T01:08:35.828Z,12.14
2017-10-01T01:11:03.393Z,12.13
2017-10-01T01:13:30.941Z,12.08
2017-10-01T01:15:58.711Z,12.10
2017-10-01T01:18:26.230Z,12.09
2017-10-01T01:20:53.743Z,12.10
2017-10-01T01:23:21.315Z,12.10
2017-10-01T01:25:48.843Z,12.23
2017-10-01T01:28:16.466Z,12.10
2017-10-01T01:30:44.054Z,12.13
2017-10-01T01:33:11.571Z,12.11
2017-10-01T01:35:39.086Z,12.20
2017-10-01T01:38:06.830Z,12.20
2017-10-01T01:40:34.343Z,12.14
2017-10-01T01:43:01.854Z,12.09
2017-10-01T01:45:29.441Z,11.97
2017-10-01T01:47:57.007Z,11.95
2017-10-01T01:50:24.536Z,11.91
2017-10-01T01:52:52.227Z,11.84
2017-10-01T01:55:19.758Z,11.80
2017-10-01T01:57:47.318Z,11.69
2017-10-01T02:00:14.878Z,11.64
2017-10-01T02:02:42.436Z,11.53
2017-10-01T02:05:09.994Z,11.50
2017-10-01T02:07:37.575Z,11.45
2017-10-01T02:10:05.119Z,11.38
2017-10-01T02:12:32.652Z,11.26
2017-10-01T02:15:00.233Z,11.26
2017-10-01T02:17:27.789Z,11.14
2017-10-01T02:19:55.309Z,11.07
2017-10-01T02:22:23.115Z,10.98
2017-10-01T02:24:50.672Z,10.98
2017-10-01T02:27:18.232Z,10.91
2017-10-01T02:29:45.995Z,10.87
2017-10-01T02:32:13.630Z,10.89
2017-10-01T02:34:41.153Z,10.82
2017-10-01T02:37:08.878Z,10.75
2017-10-01T02:39:36.437Z,10.70
2017-10-01T02:42:03.995Z,10.55
2017-10-01T02:44:31.575Z,10.48
2017-10-01T02:46:59.113Z,10.49
2017-10-01T02:49:26.636Z,10.43
2017-10-01T02:51:54.459Z,10.37
2017-10-01T02:54:21.996Z,10.45
2017-10-01T02:56:49.555Z,10.48
2017-10-01T02:59:17.593Z,10.42
2017-10-01T03:01:45.125Z,10.38
2017-10-01T03:04:12.663Z,10.34
2017-10-01T03:06:40.230Z,10.31
2017-10-01T03:09:07.759Z,10.31
2017-10-01T03:11:35.320Z,10.30
2017-10-01T03:14:02.883Z,10.31
2017-10-01T03:16:30.407Z,10.31
2017-10-01T03:18:58.226Z,10.27
2017-10-01T03:21:25.878Z,10.27
2017-10-01T03:23:53.421Z,10.29
2017-10-01T03:26:20.949Z,10.26
2017-10-01T03:28:48.541Z,10.25
2017-10-01T03:31:16.099Z,10.23
2017-10-01T03:33:43.659Z,10.26
2017-10-01T03:36:11.421Z,10.25
2017-10-01T03:38:38.980Z,10.14
2017-10-01T03:41:06.540Z,9.92
2017-10-01T03:43:34.311Z,9.96
2017-10-01T03:46:01.864Z,9.74
2017-10-01T03:48:29.422Z,9.78
2017-10-01T03:50:56.981Z,9.64
2017-10-01T03:53:24.652Z,9.54
2017-10-01T03:55:52.206Z,9.67
2017-10-01T03:58:20.170Z,9.72
2017-10-01T04:00:47.681Z,9.70
2017-10-01T04:03:15.193Z,9.62
2017-10-01T04:05:42.759Z,9.55
2017-10-01T04:08:10.270Z,9.48
2017-10-01T04:10:37.787Z,9.45
2017-10-01T04:13:05.633Z,9.32
2017-10-01T04:15:33.186Z,9.44
2017-10-01T04:18:00.698Z,9.48
2017-10-01T04:20:28.320Z,9.40
2017-10-01T04:22:55.834Z,9.31
2017-10-01T04:25:23.354Z,9.23
2017-10-01T04:27:51.084Z,9.25
2017-10-01T04:30:18.597Z,9.20
2017-10-01T04:32:46.115Z,9.21
2017-10-01T04:35:13.864Z,9.17
2017-10-01T04:37:41.383Z,9.19
2017-10-01T04:40:08.906Z,9.15
2017-10-01T04:42:36.632Z,9.07
2017-10-01T04:45:04.219Z,9.02
2017-10-01T04:47:31.730Z,9.16
2017-10-01T04:49:59.533Z,9.07
2017-10-01T04:52:27.156Z,9.00
2017-10-01T04:54:54.666Z,9.00
2017-10-01T04:57:22.244Z,8.98
2017-10-01T04:59:49.770Z,8.94
2017-10-01T05:02:17.322Z,8.80
2017-10-01T05:04:44.874Z,8.88
2017-10-01T05:07:12.395Z,8.81
2017-10-01T05:09:39.934Z,8.87
2017-10-01T05:12:07.660Z,8.84
2017-10-01T05:14:35.246Z,8.81
2017-10-01T05:17:02.880Z,8.88
2017-10-01T05:19:30.643Z,8.91
2017-10-01T05:21:58.526Z,8.79
2017-10-01T05:24:26.119Z,8.74
2017-10-01T05:26:53.937Z,8.75
2017-10-01T05:29:21.451Z,8.76
2017-10-01T05:31:48.967Z,8.86
2017-10-01T05:34:17.434Z,8.87
2017-10-01T05:36:44.991Z,8.87
2017-10-01T05:39:12.551Z,8.86
2017-10-01T05:41:40.416Z,8.95
2017-10-01T05:44:07.975Z,8.84
2017-10-01T05:46:35.491Z,8.83
2017-10-01T05:49:03.095Z,8.92
2017-10-01T05:51:30.654Z,8.91
2017-10-01T05:53:58.212Z,8.90
2017-10-01T05:56:26.693Z,9.01
2017-10-01T05:58:54.251Z,9.07
2017-10-01T06:01:21.850Z,9.08
2017-10-01T06:03:49.579Z,9.08
2017-10-01T06:06:17.136Z,9.12
2017-10-01T06:08:44.696Z,9.16
2017-10-01T06:11:12.457Z,9.28
2017-10-01T06:13:40.017Z,9.38
2017-10-01T06:16:07.529Z,9.43
2017-10-01T06:18:35.454Z,9.46
2017-10-01T06:21:02.971Z,9.52
2017-10-01T06:23:30.494Z,9.64
2017-10-01T06:25:58.046Z,9.87
2017-10-01T06:28:25.575Z,10.33
2017-10-01T06:30:53.140Z,10.66
2017-10-01T06:33:20.723Z,10.84
2017-10-01T06:35:48.252Z,11.03
2017-10-01T06:38:15.811Z,11.13
2017-10-01T06:40:43.406Z,11.17
2017-10-01T06:43:10.922Z,11.13
2017-10-01T06:45:39.860Z,10.93
2017-10-01T06:48:07.686Z,10.83
2017-10-01T06:50:35.223Z,10.74
2017-10-01T06:53:02.813Z,10.55
2017-10-01T06:55:30.394Z,10.41
2017-10-01T06:57:58.007Z,10.32
2017-10-01T07:00:25.534Z,10.31
2017-10-01T07:02:53.450Z,10.39
2017-10-01T07:05:21.008Z,10.49
2017-10-01T07:07:48.575Z,10.63
2017-10-01T07:10:16.139Z,10.78
2017-10-01T07:12:43.685Z,10.85
2017-10-01T07:15:11.361Z,10.97
2017-10-01T07:17:38.926Z,11.13
2017-10-01T07:20:06.555Z,11.21
2017-10-01T07:22:34.130Z,11.29
2017-10-01T07:25:01.718Z,11.43
2017-10-01T07:27:29.258Z,11.60
2017-10-01T07:29:56.805Z,11.76
2017-10-01T07:32:24.550Z,11.77
2017-10-01T07:34:52.078Z,11.86
2017-10-01T07:37:19.613Z,12.05
2017-10-01T07:39:47.190Z,12.21
2017-10-01T07:42:14.740Z,12.36
2017-10-01T07:44:42.346Z,12.45
2017-10-01T07:47:10.128Z,12.61
2017-10-01T07:49:37.647Z,12.64
2017-10-01T07:52:05.170Z,12.77
2017-10-01T07:54:33.103Z,12.97
2017-10-01T07:57:00.614Z,13.03
2017-10-01T07:59:28.133Z,13.25
2017-10-01T08:01:55.893Z,13.38
2017-10-01T08:04:23.407Z,13.43
2017-10-01T08:06:50.922Z,13.58
2017-10-01T08:09:18.672Z,13.93
2017-10-01T08:11:46.182Z,14.20
2017-10-01T08:14:13.689Z,14.59
2017-10-01T08:16:41.434Z,15.09
2017-10-01T08:19:09.012Z,15.52
2017-10-01T08:21:36.571Z,16.10
2017-10-01T08:24:04.215Z,16.39
2017-10-01T08:26:31.738Z,16.43
2017-10-01T08:28:59.454Z,16.31
2017-10-01T08:31:27.035Z,16.44
2017-10-01T08:33:54.939Z,16.23
2017-10-01T08:36:22.554Z,16.47
2017-10-01T08:38:50.307Z,16.86
2017-10-01T08:41:17.852Z,17.35
2017-10-01T08:43:45.524Z,17.75
2017-10-01T08:46:13.089Z,18.00
2017-10-01T08:48:41.057Z,17.90
2017-10-01T08:51:09.737Z,18.59
2017-10-01T08:53:38.499Z,18.93
2017-10-01T08:56:06.298Z,19.29
2017-10-01T08:58:33.878Z,19.15
2017-10-01T09:01:01.889Z,18.87
2017-10-01T09:03:29.583Z,18.71
2017-10-01T09:05:57.364Z,18.13
2017-10-01T09:08:25.098Z,17.80
2017-10-01T09:10:52.790Z,17.86
2017-10-01T09:13:20.559Z,18.65
2017-10-01T09:15:48.706Z,21.75
2017-10-01T09:18:16.267Z,23.23
2017-10-01T09:20:44.344Z,26.32
2017-10-01T09:23:12.422Z,28.96
2017-10-01T09:25:40.261Z,30.46
2017-10-01T09:28:07.937Z,30.80
2017-10-01T09:30:35.709Z,32.08
2017-10-01T09:33:03.778Z,32.31
2017-10-01T09:35:31.567Z,33.28
2017-10-01T09:37:59.472Z,33.44
2017-10-01T09:40:27.010Z,33.81
2017-10-01T09:42:54.530Z,34.95
2017-10-01T09:45:22.489Z,34.51
2017-10-01T09:47:49.994Z,33.24
2017-10-01T09:50:17.526Z,34.18
2017-10-01T09:52:45.499Z,33.42
2017-10-01T09:55:13.034Z,33.71
2017-10-01T09:57:40.809Z,33.69
2017-10-01T10:00:08.766Z,33.19
2017-10-01T10:02:36.325Z,33.94
2017-10-01T10:05:03.903Z,34.98
2017-10-01T10:07:31.955Z,35.27
2017-10-01T10:09:59.541Z,36.64
2017-10-01T10:12:27.160Z,37.14
2017-10-01T10:14:54.838Z,35.70
2017-10-01T10:17:22.498Z,36.80
2017-10-01T10:19:50.364Z,36.03
2017-10-01T10:22:18.128Z,35.28
2017-10-01T10:24:45.774Z,34.23
2017-10-01T10:27:13.556Z,35.66
2017-10-01T10:29:41.428Z,35.59
2017-10-01T10:32:09.287Z,35.83
2017-10-01T10:34:37.058Z,35.77
2017-10-01T10:37:04.870Z,36.34
2017-10-01T10:39:32.582Z,36.38
2017-10-01T10:42:00.239Z,36.50
2017-10-01T10:44:27.901Z,36.81
2017-10-01T10:46:55.631Z,37.66
2017-10-01T10:49:24.351Z,34.81
2017-10-01T10:51:52.132Z,35.13
2017-10-01T10:54:20.400Z,34.78
2017-10-01T10:56:48.256Z,37.40
2017-10-01T10:59:16.195Z,37.61
2017-10-01T11:01:44.004Z,37.69
2017-10-01T11:04:12.367Z,36.71
2017-10-01T11:06:40.361Z,35.91
2017-10-01T11:09:08.103Z,34.14
2017-10-01T11:11:35.934Z,36.53
2017-10-01T11:14:04.038Z,36.54
2017-10-01T11:16:31.904Z,37.08
2017-10-01T11:18:59.770Z,35.60
2017-10-01T11:21:27.535Z,35.83
2017-10-01T11:23:55.115Z,37.21
2017-10-01T11:26:23.061Z,37.11
2017-10-01T11:28:50.915Z,37.74
2017-10-01T11:31:18.589Z,38.78
2017-10-01T11:33:46.455Z,38.33
2017-10-01T11:36:14.324Z,38.08
2017-10-01T11:38:42.059Z,39.32
2017-10-01T11:41:09.646Z,39.16
2017-10-01T11:43:37.562Z,38.92
2017-10-01T11:46:06.105Z,37.92
2017-10-01T11:48:33.659Z,37.61
2017-10-01T11:51:01.524Z,36.37
2017-10-01T11:53:29.360Z,35.88
2017-10-01T11:55:56.945Z,36.49
2017-10-01T11:58:25.017Z,37.79
2017-10-01T12:00:52.576Z,37.45
2017-10-01T12:03:20.135Z,39.23
2017-10-01T12:05:47.763Z,38.65
2017-10-01T12:08:15.768Z,38.03
2017-10-01T12:10:43.323Z,37.63
2017-10-01T12:13:11.271Z,36.73
2017-10-01T12:15:38.794Z,36.87
2017-10-01T12:18:06.310Z,36.21
2017-10-01T12:20:34.105Z,35.80
2017-10-01T12:23:01.838Z,35.85
2017-10-01T12:25:29.434Z,36.49
2017-10-01T12:27:57.178Z,36.60
2017-10-01T12:30:24.727Z,37.02
2017-10-01T12:32:52.279Z,38.19
2017-10-01T12:35:20.014Z,38.34
2017-10-01T12:37:47.704Z,38.87
2017-10-01T12:40:15.291Z,38.93
2017-10-01T12:42:42.922Z,38.42
2017-10-01T12:45:10.430Z,33.97
2017-10-01T12:47:37.942Z,30.42
2017-10-01T12:50:05.499Z,27.70
2017-10-01T12:52:33.059Z,26.25
2017-10-01T12:55:00.822Z,24.76
2017-10-01T12:57:28.839Z,24.48
2017-10-01T12:59:56.407Z,27.28
2017-10-01T13:02:24.145Z,29.69
2017-10-01T13:04:51.858Z,31.18
2017-10-01T13:07:19.452Z,31.33
2017-10-01T13:09:47.009Z,31.11
2017-10-01T13:12:14.664Z,33.64
2017-10-01T13:14:42.280Z,33.91
2017-10-01T13:17:10.084Z,34.13
2017-10-01T13:19:37.645Z,34.85
2017-10-01T13:22:05.208Z,34.66
2017-10-01T13:24:32.726Z,33.68
2017-10-01T13:27:00.246Z,34.24
2017-10-01T13:29:28.602Z,34.19
2017-10-01T13:31:56.351Z,33.37
2017-10-01T13:34:23.872Z,32.47
2017-10-01T13:36:51.422Z,31.29
2017-10-01T13:39:19.447Z,31.50
2017-10-01T13:41:46.954Z,31.48
2017-10-01T13:44:14.669Z,30.38
2017-10-01T13:46:42.209Z,29.01
2017-10-01T13:49:09.717Z,28.45
2017-10-01T13:51:37.246Z,27.40
2017-10-01T13:54:04.802Z,26.78
2017-10-01T13:56:32.771Z,27.29
2017-10-01T13:59:00.274Z,29.04
2017-10-01T14:01:27.786Z,30.40
2017-10-01T14:03:55.291Z,29.08
2017-10-01T14:06:22.801Z,28.31
2017-10-01T14:08:50.386Z,27.20
2017-10-01T14:11:17.924Z,26.34
2017-10-01T14:13:45.888Z,25.63
2017-10-01T14:16:13.448Z,25.76
2017-10-01T14:18:40.955Z,26.55
2017-10-01T14:21:08.483Z,26.24
2017-10-01T14:23:35.998Z,24.79
2017-10-01T14:26:04.196Z,24.33
2017-10-01T14:28:31.772Z,23.89
2017-10-01T14:31:05.167Z,23.70
2017-10-01T14:33:32.709Z,23.12
2017-10-01T14:36:00.213Z,23.18
2017-10-01T14:38:27.726Z,22.95
2017-10-01T14:40:55.287Z,22.24
2017-10-01T14:43:23.055Z,21.55
2017-10-01T14:45:50.609Z,20.91
2017-10-01T14:48:18.167Z,20.87
2017-10-01T14:50:45.726Z,21.32
2017-10-01T14:53:16.195Z,20.72
2017-10-01T14:55:43.999Z,20.19
2017-10-01T14:58:11.519Z,20.04
2017-10-01T15:00:39.032Z,19.73
2017-10-01T15:03:06.592Z,19.82
2017-10-01T15:05:34.257Z,19.34
2017-10-01T15:08:01.834Z,19.48
2017-10-01T15:10:29.586Z,19.17
2017-10-01T15:12:57.248Z,19.10
2017-10-01T15:15:25.312Z,18.85
2017-10-01T15:17:52.905Z,18.42
2017-10-01T15:20:20.634Z,18.08
2017-10-01T15:22:48.230Z,17.90
2017-10-01T15:25:15.760Z,17.88
2017-10-01T15:27:43.333Z,17.64
2017-10-01T15:30:10.976Z,17.62
2017-10-01T15:32:38.559Z,17.53
2017-10-01T15:35:06.198Z,17.42
2017-10-01T15:37:34.779Z,17.34
2017-10-01T15:40:02.542Z,17.22
2017-10-01T15:42:30.203Z,17.22
2017-10-01T15:44:57.976Z,17.12
2017-10-01T15:47:25.577Z,17.12
2017-10-01T15:49:53.104Z,17.02
2017-10-01T15:52:20.677Z,16.79
2017-10-01T15:54:48.617Z,16.61
2017-10-01T15:57:16.889Z,16.63
2017-10-01T15:59:44.666Z,16.61
2017-10-01T16:02:12.424Z,16.58
2017-10-01T16:04:40.183Z,16.46
2017-10-01T16:07:08.354Z,16.46
2017-10-01T16:09:36.325Z,16.37
2017-10-01T16:12:04.089Z,16.28
2017-10-01T16:14:31.799Z,16.07
2017-10-01T16:16:59.464Z,16.03
2017-10-01T16:19:27.174Z,15.97
2017-10-01T16:21:56.666Z,15.95
2017-10-01T16:24:24.443Z,15.83
2017-10-01T16:26:52.638Z,15.79
2017-10-01T16:29:20.379Z,15.65
2017-10-01T16:31:48.041Z,15.57
2017-10-01T16:34:15.908Z,15.46
2017-10-01T16:36:43.979Z,15.36
2017-10-01T16:39:12.007Z,15.25
2017-10-01T16:41:39.813Z,15.19
2017-10-01T16:44:07.680Z,15.11
2017-10-01T16:46:35.547Z,15.01
2017-10-01T16:49:03.178Z,14.92
2017-10-01T16:51:31.064Z,14.89
2017-10-01T16:53:58.851Z,14.75
2017-10-01T16:56:26.509Z,14.70
2017-10-01T16:58:54.490Z,14.63
2017-10-01T17:01:22.949Z,14.57
2017-10-01T17:03:50.719Z,14.48
2017-10-01T17:06:18.477Z,14.51
2017-10-01T17:08:46.457Z,14.49
2017-10-01T17:11:14.516Z,14.49
2017-10-01T17:13:42.279Z,14.47
2017-10-01T17:16:10.236Z,14.41
2017-10-01T17:18:37.916Z,14.35
2017-10-01T17:21:06.021Z,14.28
2017-10-01T17:23:34.163Z,14.22
2017-10-01T17:26:01.768Z,14.32
2017-10-01T17:28:29.477Z,14.33
2017-10-01T17:30:57.255Z,14.29
2017-10-01T17:33:25.025Z,14.25
2017-10-01T17:35:52.720Z,14.19
2017-10-01T17:38:20.444Z,14.16
2017-10-01T17:40:48.216Z,14.12
2017-10-01T17:43:15.857Z,14.14
2017-10-01T17:45:43.589Z,14.06
2017-10-01T17:48:11.794Z,13.96
2017-10-01T17:50:39.455Z,13.91
2017-10-01T17:53:07.116Z,13.75
2017-10-01T17:55:34.882Z,13.64
2017-10-01T17:58:02.736Z,13.50
2017-10-01T18:00:30.613Z,13.40
2017-10-01T18:02:58.683Z,13.35
2017-10-01T18:05:26.296Z,13.31
2017-10-01T18:07:54.018Z,13.19
2017-10-01T18:10:21.810Z,13.11
2017-10-01T18:12:49.636Z,13.13
2017-10-01T18:15:17.271Z,13.06
2017-10-01T18:17:44.921Z,13.01
2017-10-01T18:20:12.588Z,12.96
2017-10-01T18:22:40.298Z,12.91
2017-10-01T18:25:08.301Z,12.86
2017-10-01T18:27:36.016Z,12.90
2017-10-01T18:30:03.581Z,12.83
2017-10-01T18:32:31.337Z,12.75
2017-10-01T18:35:01.162Z,12.63
2017-10-01T18:37:28.702Z,12.47
2017-10-01T18:39:56.575Z,12.41
2017-10-01T18:42:24.103Z,12.48
2017-10-01T18:44:52.030Z,12.52
2017-10-01T18:47:19.823Z,12.48
2017-10-01T18:49:47.529Z,12.42
2017-10-01T18:52:15.396Z,12.35
2017-10-01T18:54:43.339Z,12.38
2017-10-01T18:57:11.363Z,12.39
2017-10-01T18:59:39.042Z,12.38
2017-10-01T19:02:07.075Z,12.25
2017-10-01T19:04:34.940Z,12.26
2017-10-01T19:07:02.719Z,12.24
2017-10-01T19:09:30.576Z,12.22
2017-10-01T19:11:58.327Z,12.16
2017-10-01T19:14:25.917Z,12.12
2017-10-01T19:16:53.962Z,12.21
2017-10-01T19:19:22.131Z,12.16
2017-10-01T19:21:49.805Z,12.06
2017-10-01T19:24:17.691Z,12.05
2017-10-01T19:26:45.422Z,12.06
2017-10-01T19:29:13.123Z,12.11
2017-10-01T19:31:40.776Z,12.09
2017-10-01T19:34:08.681Z,12.08
2017-10-01T19:36:36.500Z,11.95
2017-10-01T19:39:04.754Z,11.91
2017-10-01T19:41:32.620Z,11.89
2017-10-01T19:44:01.000Z,11.73
2017-10-01T19:46:29.448Z,11.71
2017-10-01T19:48:57.434Z,11.68
2017-10-01T19:51:25.079Z,11.63
2017-10-01T19:53:53.130Z,11.52
2017-10-01T19:56:20.841Z,11.51
2017-10-01T19:58:48.606Z,11.49
2017-10-01T20:01:16.275Z,11.45
2017-10-01T20:03:43.931Z,11.34
2017-10-01T20:06:11.897Z,11.29
2017-10-01T20:08:39.866Z,11.24
2017-10-01T20:11:07.539Z,11.24
2017-10-01T20:13:35.501Z,11.32
2017-10-01T20:16:03.572Z,11.27
2017-10-01T20:18:31.331Z,11.20
2017-10-01T20:20:59.096Z,11.25
2017-10-01T20:23:28.105Z,11.15
2017-10-01T20:25:56.771Z,11.11
2017-10-01T20:28:24.448Z,11.09
2017-10-01T20:30:52.617Z,11.04
2017-10-01T20:33:20.479Z,10.99
2017-10-01T20:35:48.237Z,10.94
2017-10-01T20:38:16.317Z,10.89
2017-10-01T20:40:44.079Z,10.88
2017-10-01T20:43:11.770Z,10.84
2017-10-01T20:45:39.500Z,10.79
2017-10-01T20:48:07.265Z,10.78
2017-10-01T20:50:34.924Z,10.67
2017-10-01T20:53:02.798Z,10.55
2017-10-01T20:55:30.571Z,10.39
2017-10-01T20:57:58.318Z,10.49
2017-10-01T21:00:26.389Z,10.46
2017-10-01T21:02:54.153Z,10.55
2017-10-01T21:05:22.020Z,10.55
2017-10-01T21:07:49.889Z,10.57
2017-10-01T21:10:17.634Z,10.60
2017-10-01T21:12:45.619Z,10.64
2017-10-01T21:15:13.485Z,10.69
2017-10-01T21:17:41.146Z,10.67
2017-10-01T21:20:08.801Z,10.78
2017-10-01T21:22:36.619Z,10.80
2017-10-01T21:25:04.341Z,10.73
2017-10-01T21:27:31.896Z,10.72
2017-10-01T21:29:59.864Z,10.76
2017-10-01T21:32:27.479Z,10.74
2017-10-01T21:34:55.009Z,10.74
2017-10-01T21:37:22.645Z,10.72
2017-10-01T21:39:50.185Z,10.78
2017-10-01T21:42:17.693Z,10.83
2017-10-01T21:44:45.566Z,10.90
2017-10-01T21:47:13.091Z,10.97
2017-10-01T21:49:40.780Z,11.13
2017-10-01T21:52:08.613Z,11.13
2017-10-01T21:54:36.200Z,11.07
2017-10-01T21:57:03.750Z,11.13
2017-10-01T21:59:31.801Z,11.08
2017-10-01T22:01:59.362Z,11.25
2017-10-01T22:04:26.952Z,11.28
2017-10-01T22:06:54.571Z,11.35
2017-10-01T22:09:22.242Z,11.50
2017-10-01T22:11:49.827Z,11.55
2017-10-01T22:14:17.383Z,11.60
2017-10-01T22:16:44.920Z,11.65
2017-10-01T22:19:13.387Z,11.64
2017-10-01T22:21:41.015Z,11.74
2017-10-01T22:24:08.555Z,11.81
2017-10-01T22:26:36.591Z,11.86
2017-10-01T22:29:04.356Z,11.91
2017-10-01T22:31:31.914Z,12.11
2017-10-01T22:33:59.454Z,12.17
2017-10-01T22:36:27.045Z,12.26
2017-10-01T22:38:54.575Z,12.42
2017-10-01T22:41:22.090Z,12.38
2017-10-01T22:43:49.793Z,12.48
2017-10-01T22:46:17.307Z,12.53
2017-10-01T22:48:44.826Z,12.44
2017-10-01T22:51:12.671Z,12.42
2017-10-01T22:53:40.186Z,12.49
2017-10-01T22:56:07.718Z,12.48
2017-10-01T22:58:35.677Z,12.52
2017-10-01T23:01:03.238Z,12.50
2017-10-01T23:03:30.796Z,12.55
2017-10-01T23:05:58.537Z,12.47
2017-10-01T23:08:26.426Z,12.51
2017-10-01T23:10:53.985Z,12.45
2017-10-01T23:13:21.750Z,12.46
2017-10-01T23:15:49.308Z,12.41
2017-10-01T23:18:16.891Z,12.40
2017-10-01T23:20:44.475Z,12.40
2017-10-01T23:23:12.006Z,12.45
2017-10-01T23:25:39.532Z,12.49
2017-10-01T23:28:07.513Z,12.50
2017-10-01T23:30:35.087Z,12.56
2017-10-01T23:33:02.631Z,12.54
2017-10-01T23:35:30.190Z,12.67
2017-10-01T23:37:57.779Z,12.67
2017-10-01T23:40:25.307Z,12.60
2017-10-01T23:42:52.869Z,12.60
2017-10-01T23:45:20.426Z,12.68
2017-10-01T23:47:47.985Z,12.70
2017-10-01T23:50:15.722Z,12.75
2017-10-01T23:52:43.242Z,12.74
2017-10-01T23:55:10.771Z,12.74
2017-10-01T23:57:38.734Z,12.59
